Butes — A8UR6 — position and weather

sailwx.info

Track history (hours):
 
Tides and Currents Weather Stations Pressure Air Temp Water Temp Dewpoint Dewpoint Depression Visibility Wind Speed Wind Dir Waves Ship Positions

Butes

Last reported at 2014-Oct-15 16:31 UTC. Time now 2014-Oct-23 10:21 UTC.
Position N 38°03' W 009°48'.

Length 90 m; draft 4.8 m.

Type: Cargo ship. MMSI: 636091937.

Date/timePositionNaut miles runAvg speedWind from/ knotsBaromVisibWave heightAir tempDewpointWater temp
2014-Oct-15 16:31N 38°03' W 009°48'7 7.6
2014-Oct-15 15:32N 37°56' W 009°48'8 7.3
2014-Oct-15 14:30N 37°48' W 009°48'7 7.1
2014-Oct-15 13:32N 37°42' W 009°46'  
2014-Oct-10 08:33N 35°57' W 005°21'3 2.9
2014-Oct-10 07:29N 35°54' W 005°19'0 0.0
2014-Oct-10 06:32N 35°54' W 005°19'0 0.0
2014-Oct-10 05:32N 35°54' W 005°19'0 0.2
2014-Oct-10 04:34N 35°54' W 005°19'4 3.8
2014-Oct-10 03:33N 35°57' W 005°20'6 0.1
2014-Oct-08 07:29N 35°58' W 005°27'  
Track history (hours):
 
Tides and Currents Weather Stations Pressure Air Temp Water Temp Dewpoint Dewpoint Depression Visibility Wind Speed Wind Dir Waves Ship Positions

Butes

Last reported at 2014-Oct-15 16:31 UTC. Time now 2014-Oct-23 10:21 UTC.
Position N 38°03' W 009°48'.

Length 90 m; draft 4.8 m.

Type: Cargo ship. MMSI: 636091937.

Date/timePositionNaut miles runAvg speedWind from/ knotsBaromVisibWave heightAir tempDewpointWater temp
2014-Oct-15 16:31N 38°03' W 009°48'7 7.6
2014-Oct-15 15:32N 37°56' W 009°48'8 7.3
2014-Oct-15 14:30N 37°48' W 009°48'7 7.1
2014-Oct-15 13:32N 37°42' W 009°46'  
2014-Oct-10 08:33N 35°57' W 005°21'3 2.9
2014-Oct-10 07:29N 35°54' W 005°19'0 0.0
2014-Oct-10 06:32N 35°54' W 005°19'0 0.0
2014-Oct-10 05:32N 35°54' W 005°19'0 0.2
2014-Oct-10 04:34N 35°54' W 005°19'4 3.8
2014-Oct-10 03:33N 35°57' W 005°20'6 0.1
2014-Oct-08 07:29N 35°58' W 005°27'  

Dump ship's entire track history